Terminal Aerodrome Forecast
Issued by NWS Wilmington, NC

Home | Current Version | Previous Version | Text Only | Print | Product List | Glossary On
Versions: 1 2 3 4 5 6 7 8 9 10 11 12 13 14 15 16 17 18 19 20 21
000
FTUS42 KILM 191557 AAB
TAFFLO
TAF AMD
KFLO 191557Z 1916/2012 VRB04KT 4SM BR OVC003
     FM191900 11008KT P6SM BKN020
     FM192100 17008KT P6SM BKN035
     FM200200 15004KT P6SM BKN015
      TEMPO 2002/2006 4SM BR OVC007=

USA.gov is the U.S. government's official web portal to all federal, state and local government web resources and services.